createdAt,value
2023-05-06T00:01:36.950Z,65.51
2023-05-06T00:04:39.774Z,65.76
2023-05-06T00:07:42.671Z,65.45
2023-05-06T00:10:45.303Z,64.39
2023-05-06T00:13:48.107Z,65.71
2023-05-06T00:16:51.220Z,65.74
2023-05-06T00:19:53.649Z,65.24
2023-05-06T00:22:56.136Z,66.30
2023-05-06T00:25:59.135Z,66.63
2023-05-06T00:29:01.611Z,67.35
2023-05-06T00:32:04.638Z,67.04
2023-05-06T00:35:07.288Z,66.25
2023-05-06T00:38:12.309Z,66.35
2023-05-06T00:41:14.985Z,67.98
2023-05-06T00:44:17.389Z,68.14
2023-05-06T00:47:20.064Z,67.90
2023-05-06T00:50:22.859Z,67.05
2023-05-06T00:53:25.449Z,67.74
2023-05-06T00:56:28.268Z,68.11
2023-05-06T00:59:31.402Z,68.15
2023-05-06T01:02:46.187Z,68.46
2023-05-06T01:06:24.333Z,68.42
2023-05-06T01:09:43.132Z,68.25
2023-05-06T01:13:07.363Z,68.15
2023-05-06T01:16:10.025Z,68.07
2023-05-06T01:19:18.166Z,68.13
2023-05-06T01:22:20.777Z,68.46
2023-05-06T01:25:23.708Z,68.38
2023-05-06T01:28:26.357Z,68.71
2023-05-06T01:31:48.206Z,68.69
2023-05-06T01:35:32.811Z,68.74
2023-05-06T01:38:39.883Z,68.25
2023-05-06T01:41:42.546Z,67.77
2023-05-06T01:44:46.141Z,66.94
2023-05-06T01:47:48.611Z,66.95
2023-05-06T01:50:51.125Z,67.62
2023-05-06T01:53:53.634Z,67.11
2023-05-06T01:56:56.170Z,66.40
2023-05-06T01:59:58.832Z,66.29
2023-05-06T02:03:01.707Z,66.75
2023-05-06T02:06:04.913Z,66.99
2023-05-06T02:09:12.725Z,67.06
2023-05-06T02:12:19.428Z,67.28
2023-05-06T02:15:22.340Z,67.06
2023-05-06T02:18:25.517Z,67.67
2023-05-06T02:21:28.153Z,69.21
2023-05-06T02:24:30.645Z,68.68
2023-05-06T02:27:33.135Z,70.19
2023-05-06T02:30:39.245Z,70.22
2023-05-06T02:33:42.097Z,69.15
2023-05-06T02:36:45.959Z,69.13
2023-05-06T02:39:48.388Z,69.66
2023-05-06T02:42:51.053Z,69.42
2023-05-06T02:45:53.988Z,69.34
2023-05-06T02:48:56.488Z,70.02
2023-05-06T02:51:59.361Z,70.29
2023-05-06T02:55:02.202Z,70.54
2023-05-06T02:58:04.856Z,69.27
2023-05-06T03:01:07.472Z,71.09
2023-05-06T03:04:10.376Z,70.73
2023-05-06T03:07:13.336Z,70.78
2023-05-06T03:10:16.660Z,71.25
2023-05-06T03:13:19.287Z,72.08
2023-05-06T03:16:22.631Z,71.38
2023-05-06T03:19:28.413Z,72.67
2023-05-06T03:22:31.079Z,72.19
2023-05-06T03:25:34.266Z,72.44
2023-05-06T03:28:37.331Z,72.13
2023-05-06T03:31:42.001Z,71.93
2023-05-06T03:34:45.310Z,71.59
2023-05-06T03:37:52.612Z,71.51
2023-05-06T03:40:59.211Z,70.79
2023-05-06T03:44:02.834Z,69.37
2023-05-06T03:47:06.242Z,69.90
2023-05-06T03:50:10.219Z,69.76
2023-05-06T03:53:14.660Z,69.08
2023-05-06T03:56:22.084Z,69.67
2023-05-06T03:59:27.679Z,69.52
2023-05-06T04:02:35.175Z,70.30
2023-05-06T04:05:38.800Z,70.33
2023-05-06T04:08:41.179Z,69.35
2023-05-06T04:11:43.504Z,68.97
2023-05-06T04:14:49.369Z,69.44
2023-05-06T04:17:52.661Z,69.08
2023-05-06T04:20:56.675Z,69.14
2023-05-06T04:24:00.893Z,69.09
2023-05-06T04:27:09.459Z,68.91
2023-05-06T04:30:13.535Z,69.65
2023-05-06T04:33:16.618Z,69.11
2023-05-06T04:36:20.208Z,69.37
2023-05-06T04:39:39.514Z,68.29
2023-05-06T04:42:43.412Z,67.88
2023-05-06T04:45:52.979Z,68.25
2023-05-06T04:49:00.588Z,68.05
2023-05-06T04:52:03.652Z,67.99
2023-05-06T04:55:07.318Z,67.58
2023-05-06T04:58:12.656Z,67.72
2023-05-06T05:01:15.685Z,67.42
2023-05-06T05:04:18.517Z,66.74
2023-05-06T05:07:21.188Z,66.69
2023-05-06T05:10:23.681Z,66.46
2023-05-06T05:13:27.920Z,65.55
2023-05-06T05:16:31.828Z,65.92
2023-05-06T05:19:36.608Z,65.89
2023-05-06T05:22:39.318Z,65.42
2023-05-06T05:25:42.031Z,65.32
2023-05-06T05:28:44.677Z,65.13
2023-05-06T05:31:48.779Z,65.33
2023-05-06T05:34:51.721Z,64.57
2023-05-06T05:37:54.848Z,64.94
2023-05-06T05:40:57.969Z,63.69
2023-05-06T05:44:01.500Z,64.37
2023-05-06T05:47:05.098Z,64.51
2023-05-06T05:50:09.216Z,63.95
2023-05-06T05:53:13.017Z,63.85
2023-05-06T05:56:16.804Z,63.20
2023-05-06T05:59:20.563Z,62.23
2023-05-06T06:02:26.419Z,61.91
2023-05-06T06:05:29.069Z,60.74
2023-05-06T06:08:33.526Z,61.45
2023-05-06T06:11:37.616Z,60.86
2023-05-06T06:14:41.867Z,61.11
2023-05-06T06:17:45.255Z,61.03
2023-05-06T06:20:48.574Z,60.83
2023-05-06T06:23:51.823Z,59.74
2023-05-06T06:26:55.525Z,59.77
2023-05-06T06:29:58.555Z,59.04
2023-05-06T06:33:01.543Z,59.14
2023-05-06T06:36:04.697Z,57.51
2023-05-06T06:39:07.636Z,59.58
2023-05-06T06:42:09.890Z,58.73
2023-05-06T06:45:24.661Z,57.64
2023-05-06T06:48:27.245Z,58.65
2023-05-06T06:51:29.874Z,58.15
2023-05-06T06:54:32.463Z,57.15
2023-05-06T06:57:35.023Z,57.18
2023-05-06T07:00:37.554Z,56.90
2023-05-06T07:03:40.405Z,57.18
2023-05-06T07:06:43.105Z,54.96
2023-05-06T07:09:45.605Z,55.95
2023-05-06T07:12:48.353Z,53.97
2023-05-06T07:15:50.887Z,55.54
2023-05-06T07:18:53.920Z,54.90
2023-05-06T07:21:57.029Z,52.65
2023-05-06T07:24:59.773Z,52.38
2023-05-06T07:28:02.694Z,51.57
2023-05-06T07:31:05.645Z,51.49
2023-05-06T07:34:08.441Z,49.54
2023-05-06T07:37:11.211Z,49.28
2023-05-06T07:40:13.714Z,48.82
2023-05-06T07:43:16.277Z,49.32
2023-05-06T07:46:18.748Z,48.53
2023-05-06T07:49:21.198Z,48.41
2023-05-06T07:52:24.531Z,48.37
2023-05-06T07:55:28.458Z,47.32
2023-05-06T07:58:31.600Z,46.25
2023-05-06T08:01:34.232Z,46.96
2023-05-06T08:04:37.103Z,46.17
2023-05-06T08:07:41.470Z,45.25
2023-05-06T08:10:44.364Z,46.39
2023-05-06T08:13:47.351Z,46.06
2023-05-06T08:16:50.480Z,46.37
2023-05-06T08:19:53.203Z,45.11
2023-05-06T08:22:55.521Z,43.88
2023-05-06T08:25:59.264Z,43.66
2023-05-06T08:29:03.250Z,42.33
2023-05-06T08:32:06.755Z,43.70
2023-05-06T08:35:10.465Z,42.66
2023-05-06T08:38:13.518Z,42.94
2023-05-06T08:41:15.821Z,41.76
2023-05-06T08:44:19.362Z,40.73
2023-05-06T08:47:22.188Z,40.87
2023-05-06T08:50:24.957Z,40.81
2023-05-06T08:53:27.535Z,39.25
2023-05-06T08:56:33.621Z,39.87
2023-05-06T08:59:36.304Z,40.38
2023-05-06T09:02:42.184Z,39.16
2023-05-06T09:05:45.735Z,38.98
2023-05-06T09:08:48.544Z,40.32
2023-05-06T09:11:54.202Z,38.88
2023-05-06T09:14:57.206Z,36.12
2023-05-06T09:17:59.820Z,36.85
2023-05-06T09:21:03.880Z,36.69
2023-05-06T09:24:07.389Z,36.65
2023-05-06T09:27:10.918Z,36.75
2023-05-06T09:30:14.601Z,39.41
2023-05-06T09:33:17.246Z,37.38
2023-05-06T09:36:20.198Z,36.75
2023-05-06T09:39:26.820Z,36.94
2023-05-06T09:42:29.942Z,36.46
2023-05-06T09:45:33.229Z,36.88
2023-05-06T09:48:36.517Z,38.16
2023-05-06T09:51:39.597Z,36.20
2023-05-06T09:54:42.324Z,38.26
2023-05-06T09:57:44.906Z,38.88
2023-05-06T10:00:47.447Z,35.72
2023-05-06T10:03:51.893Z,33.16
2023-05-06T10:06:56.628Z,34.49
2023-05-06T10:09:59.108Z,37.42
2023-05-06T10:13:04.726Z,34.72
2023-05-06T10:16:07.978Z,34.36
2023-05-06T10:19:10.611Z,34.19
2023-05-06T10:22:40.598Z,30.19
2023-05-06T10:25:44.289Z,28.42
2023-05-06T10:28:47.045Z,30.97
2023-05-06T10:31:54.240Z,30.27
2023-05-06T10:34:57.241Z,29.91
2023-05-06T10:37:59.700Z,28.26
2023-05-06T10:41:02.407Z,30.60
2023-05-06T10:44:06.326Z,30.96
2023-05-06T10:47:09.469Z,30.69
2023-05-06T10:50:27.792Z,29.79
2023-05-06T10:54:05.717Z,28.57
2023-05-06T10:57:09.261Z,25.74
2023-05-06T11:00:13.314Z,25.87
2023-05-06T11:03:18.827Z,24.85
2023-05-06T11:06:34.433Z,26.85
2023-05-06T11:10:00.324Z,25.29
2023-05-06T11:13:22.345Z,25.03
2023-05-06T11:16:46.844Z,24.69
2023-05-06T11:19:49.396Z,23.65
2023-05-06T11:22:52.744Z,25.19
2023-05-06T11:25:56.580Z,27.52
2023-05-06T11:28:59.630Z,29.73
2023-05-06T11:32:02.212Z,30.36
2023-05-06T11:35:05.257Z,31.61
2023-05-06T11:38:07.901Z,30.42
2023-05-06T11:41:10.903Z,29.60
2023-05-06T11:44:24.119Z,28.69
2023-05-06T11:47:26.557Z,30.19
2023-05-06T11:50:29.174Z,27.27
2023-05-06T11:53:31.769Z,28.55
2023-05-06T11:56:51.003Z,25.01
2023-05-06T11:59:54.589Z,25.72
2023-05-06T12:02:57.370Z,27.79
2023-05-06T12:05:59.903Z,28.81
2023-05-06T12:09:07.549Z,31.92
2023-05-06T12:12:10.539Z,31.46
2023-05-06T12:15:13.089Z,33.00
2023-05-06T12:18:15.599Z,32.91
2023-05-06T12:21:22.691Z,30.75
2023-05-06T12:24:29.380Z,32.19
2023-05-06T12:27:33.287Z,32.81
2023-05-06T12:30:35.829Z,33.06
2023-05-06T12:33:45.587Z,34.02
2023-05-06T12:36:48.158Z,33.89
2023-05-06T12:39:50.847Z,32.94
2023-05-06T12:42:56.307Z,34.03
2023-05-06T12:46:08.223Z,33.33
2023-05-06T12:49:10.775Z,33.78
2023-05-06T12:52:13.345Z,33.75
2023-05-06T12:55:16.052Z,33.46
2023-05-06T12:58:19.001Z,33.87
2023-05-06T13:01:22.248Z,34.56
2023-05-06T13:04:27.447Z,35.48
2023-05-06T13:07:30.763Z,35.54
2023-05-06T13:10:33.556Z,35.32
2023-05-06T13:13:36.209Z,35.47
2023-05-06T13:16:38.773Z,36.67
2023-05-06T13:19:41.390Z,36.60
2023-05-06T13:22:54.261Z,36.29
2023-05-06T13:26:04.307Z,36.52
2023-05-06T13:29:07.957Z,36.79
2023-05-06T13:32:10.678Z,36.83
2023-05-06T13:35:13.544Z,36.40
2023-05-06T13:38:16.189Z,37.00
2023-05-06T13:41:19.707Z,38.06
2023-05-06T13:44:22.886Z,37.27
2023-05-06T13:47:26.977Z,37.83
2023-05-06T13:50:30.610Z,37.10
2023-05-06T13:53:33.854Z,37.52
2023-05-06T13:56:37.066Z,36.91
2023-05-06T13:59:39.662Z,37.77
2023-05-06T14:02:43.094Z,38.35
2023-05-06T14:05:46.226Z,40.36
2023-05-06T14:08:48.650Z,42.17
2023-05-06T14:11:51.926Z,42.99
2023-05-06T14:14:54.385Z,43.59
2023-05-06T14:17:57.909Z,43.21
2023-05-06T14:21:00.552Z,43.54
2023-05-06T14:24:04.627Z,42.45
2023-05-06T14:27:08.313Z,43.91
2023-05-06T14:30:11.099Z,44.76
2023-05-06T14:33:13.853Z,44.96
2023-05-06T14:36:19.913Z,46.51
2023-05-06T14:39:22.291Z,47.80
2023-05-06T14:42:24.728Z,48.74
2023-05-06T14:45:27.402Z,49.14
2023-05-06T14:48:31.700Z,49.94
2023-05-06T14:51:34.767Z,50.24
2023-05-06T14:54:58.190Z,50.08
2023-05-06T14:58:00.630Z,50.65
2023-05-06T15:01:03.263Z,50.69
2023-05-06T15:04:05.921Z,51.16
2023-05-06T15:07:08.638Z,52.06
2023-05-06T15:10:11.368Z,52.36
2023-05-06T15:13:16.875Z,53.14
2023-05-06T15:16:19.516Z,53.95
2023-05-06T15:19:22.176Z,53.82
2023-05-06T15:22:24.796Z,54.47
2023-05-06T15:25:35.810Z,54.72
2023-05-06T15:28:39.312Z,55.01
2023-05-06T15:31:44.189Z,55.31
2023-05-06T15:34:46.739Z,55.86
2023-05-06T15:37:49.317Z,55.52
2023-05-06T15:40:52.261Z,56.02
2023-05-06T15:43:56.351Z,55.58
2023-05-06T15:46:58.756Z,56.68
2023-05-06T15:50:01.727Z,55.97
2023-05-06T15:53:04.303Z,55.22
2023-05-06T15:56:17.246Z,54.79
2023-05-06T15:59:21.211Z,56.23
2023-05-06T16:02:27.241Z,56.09
2023-05-06T16:05:29.963Z,56.24
2023-05-06T16:08:32.637Z,55.37
2023-05-06T16:11:35.202Z,55.13
2023-05-06T16:14:38.120Z,54.28
2023-05-06T16:17:41.127Z,54.53
2023-05-06T16:20:43.710Z,54.85
2023-05-06T16:23:46.197Z,53.31
2023-05-06T16:26:48.942Z,52.54
2023-05-06T16:29:51.628Z,52.73
2023-05-06T16:32:54.160Z,53.50
2023-05-06T16:35:57.354Z,53.76
2023-05-06T16:38:59.912Z,53.97
2023-05-06T16:42:02.632Z,54.80
2023-05-06T16:45:05.482Z,56.04
2023-05-06T16:48:08.293Z,55.84
2023-05-06T16:51:12.321Z,55.67
2023-05-06T16:54:14.929Z,57.11
2023-05-06T16:57:17.759Z,57.38
2023-05-06T17:00:21.135Z,58.15
2023-05-06T17:03:24.238Z,57.96
2023-05-06T17:06:32.104Z,57.49
2023-05-06T17:09:34.802Z,57.10
2023-05-06T17:12:37.503Z,56.84
2023-05-06T17:15:47.729Z,57.48
2023-05-06T17:18:53.738Z,58.03
2023-05-06T17:21:59.522Z,58.75
2023-05-06T17:25:02.800Z,57.89
2023-05-06T17:28:05.352Z,58.83
2023-05-06T17:31:07.800Z,58.46
2023-05-06T17:34:10.270Z,58.60
2023-05-06T17:37:12.914Z,59.16
2023-05-06T17:40:15.370Z,59.44
2023-05-06T17:43:17.885Z,59.93
2023-05-06T17:46:20.719Z,59.04
2023-05-06T17:49:23.755Z,59.17
2023-05-06T17:52:26.687Z,59.45
2023-05-06T17:55:29.410Z,60.01
2023-05-06T17:58:32.024Z,60.06
2023-05-06T18:01:34.994Z,60.48
2023-05-06T18:04:37.576Z,60.77
2023-05-06T18:07:42.929Z,60.37
2023-05-06T18:10:45.575Z,61.30
2023-05-06T18:13:48.214Z,61.50
2023-05-06T18:16:50.991Z,61.36
2023-05-06T18:19:53.730Z,61.38
2023-05-06T18:22:56.448Z,61.98
2023-05-06T18:25:59.366Z,61.63
2023-05-06T18:29:04.145Z,61.13
2023-05-06T18:32:06.858Z,60.57
2023-05-06T18:35:10.961Z,60.91
2023-05-06T18:38:15.184Z,61.48
2023-05-06T18:41:18.031Z,61.32
2023-05-06T18:44:20.928Z,62.00
2023-05-06T18:47:25.750Z,62.66
2023-05-06T18:50:28.557Z,63.03
2023-05-06T18:53:31.002Z,62.89
2023-05-06T18:56:33.608Z,63.00
2023-05-06T18:59:36.319Z,62.59
2023-05-06T19:02:39.105Z,62.66
2023-05-06T19:05:41.838Z,62.54
2023-05-06T19:08:44.109Z,61.96
2023-05-06T19:11:46.821Z,62.30
2023-05-06T19:14:50.717Z,63.03
2023-05-06T19:17:54.026Z,63.44
2023-05-06T19:20:56.773Z,63.40
2023-05-06T19:23:59.848Z,63.37
2023-05-06T19:27:03.818Z,63.92
2023-05-06T19:30:07.471Z,64.62
2023-05-06T19:33:10.033Z,65.05
2023-05-06T19:36:12.592Z,64.49
2023-05-06T19:39:16.449Z,64.39
2023-05-06T19:42:19.352Z,64.48
2023-05-06T19:45:21.912Z,65.09
2023-05-06T19:48:24.532Z,65.21
2023-05-06T19:51:28.383Z,64.72
2023-05-06T19:54:31.040Z,64.58
2023-05-06T19:57:33.994Z,65.34
2023-05-06T20:00:36.497Z,65.29
2023-05-06T20:03:39.353Z,65.60
2023-05-06T20:06:42.118Z,65.88
2023-05-06T20:09:45.675Z,66.27
2023-05-06T20:12:48.365Z,67.53
2023-05-06T20:15:51.067Z,66.45
2023-05-06T20:18:53.684Z,65.98
2023-05-06T20:21:57.289Z,66.37
2023-05-06T20:25:14.516Z,66.22
2023-05-06T20:28:18.593Z,67.03
2023-05-06T20:31:21.407Z,67.69
2023-05-06T20:34:26.786Z,67.29
2023-05-06T20:37:30.935Z,67.07
2023-05-06T20:40:35.750Z,66.99
2023-05-06T20:43:38.656Z,67.92
2023-05-06T20:46:41.439Z,67.75
2023-05-06T20:49:44.344Z,67.21
2023-05-06T20:52:47.101Z,67.25
2023-05-06T20:55:49.850Z,67.52
2023-05-06T20:58:52.923Z,68.75
2023-05-06T21:01:56.377Z,68.36
2023-05-06T21:04:59.515Z,68.38
2023-05-06T21:08:02.055Z,68.29
2023-05-06T21:11:05.459Z,67.71
2023-05-06T21:14:08.188Z,67.34
2023-05-06T21:17:10.656Z,67.31
2023-05-06T21:20:13.430Z,66.99
2023-05-06T21:23:16.360Z,67.64
2023-05-06T21:26:19.077Z,67.31
2023-05-06T21:29:21.649Z,67.25
2023-05-06T21:32:24.443Z,66.90
2023-05-06T21:35:27.030Z,68.05
2023-05-06T21:38:29.832Z,67.49
2023-05-06T21:41:35.360Z,68.35
2023-05-06T21:44:37.873Z,68.29
2023-05-06T21:47:40.907Z,68.03
2023-05-06T21:50:43.499Z,69.20
2023-05-06T21:53:50.580Z,69.50
2023-05-06T21:56:53.087Z,68.84
2023-05-06T21:59:55.540Z,68.51
2023-05-06T22:02:58.791Z,69.14
2023-05-06T22:06:01.344Z,68.94
2023-05-06T22:09:08.752Z,68.59
2023-05-06T22:12:12.738Z,68.82
2023-05-06T22:15:16.247Z,68.91
2023-05-06T22:18:18.981Z,69.33
2023-05-06T22:21:21.941Z,68.91
2023-05-06T22:24:26.165Z,69.25
2023-05-06T22:27:29.106Z,70.02
2023-05-06T22:30:31.606Z,70.65
2023-05-06T22:33:34.997Z,70.86
2023-05-06T22:36:37.272Z,71.67
2023-05-06T22:39:39.608Z,71.44
2023-05-06T22:42:42.116Z,72.60
2023-05-06T22:45:44.659Z,72.52
2023-05-06T22:48:47.135Z,73.04
2023-05-06T22:51:49.616Z,72.76
2023-05-06T22:54:52.614Z,72.92
2023-05-06T22:57:55.162Z,73.09
2023-05-06T23:00:57.970Z,72.88
2023-05-06T23:04:00.671Z,73.25
2023-05-06T23:07:03.393Z,74.05
2023-05-06T23:10:06.811Z,72.65
2023-05-06T23:13:09.322Z,72.80
2023-05-06T23:16:12.053Z,72.36
2023-05-06T23:19:14.300Z,72.88
2023-05-06T23:22:16.541Z,72.72
2023-05-06T23:25:19.785Z,72.89
2023-05-06T23:28:22.470Z,73.41
2023-05-06T23:31:25.114Z,74.14
2023-05-06T23:34:27.524Z,73.71
2023-05-06T23:37:29.958Z,73.86
2023-05-06T23:40:32.443Z,74.15
2023-05-06T23:43:34.915Z,74.14
2023-05-06T23:46:37.455Z,74.10
2023-05-06T23:49:39.936Z,74.30
2023-05-06T23:52:42.489Z,75.32
2023-05-06T23:55:44.905Z,74.86
2023-05-06T23:58:47.651Z,76.15
